createdAt,value
2022-10-07T00:00:14.784Z,20.93
2022-10-07T00:02:46.958Z,24.47
2022-10-07T00:05:14.855Z,24.93
2022-10-07T00:07:44.413Z,24.73
2022-10-07T00:10:16.725Z,26.23
2022-10-07T00:12:44.525Z,29.23
2022-10-07T00:15:12.372Z,24.67
2022-10-07T00:17:45.587Z,23.80
2022-10-07T00:20:13.770Z,25.47
2022-10-07T00:22:41.610Z,33.03
2022-10-07T00:25:15.352Z,19.37
2022-10-07T00:27:43.376Z,27.47
2022-10-07T00:30:14.484Z,26.03
2022-10-07T00:32:42.412Z,22.33
2022-10-07T00:35:10.525Z,30.93
2022-10-07T00:37:43.440Z,19.90
2022-10-07T00:40:14.441Z,30.73
2022-10-07T00:42:46.469Z,19.93
2022-10-07T00:45:15.442Z,33.10
2022-10-07T00:47:50.443Z,26.13
2022-10-07T00:50:25.253Z,24.07
2022-10-07T00:52:57.651Z,27.03
2022-10-07T00:55:30.841Z,28.70
2022-10-07T00:58:05.717Z,24.60
2022-10-07T01:00:35.720Z,22.23
2022-10-07T01:03:03.848Z,27.27
2022-10-07T01:05:33.869Z,21.67
2022-10-07T01:08:02.505Z,25.10
2022-10-07T01:10:41.425Z,24.63
2022-10-07T01:13:15.898Z,22.77
2022-10-07T01:15:54.386Z,25.80
2022-10-07T01:18:29.394Z,20.70
2022-10-07T01:21:05.238Z,21.33
2022-10-07T01:23:56.188Z,24.00
2022-10-07T01:26:59.670Z,29.13
2022-10-07T01:29:31.537Z,22.57
2022-10-07T01:32:08.778Z,21.17
2022-10-07T01:34:38.494Z,28.77
2022-10-07T01:37:11.566Z,19.73
2022-10-07T01:39:45.465Z,22.73
2022-10-07T01:42:20.538Z,26.07
2022-10-07T01:44:53.736Z,19.87
2022-10-07T01:47:25.688Z,25.57
2022-10-07T01:49:53.717Z,24.07
2022-10-07T01:52:54.560Z,17.23
2022-10-07T01:55:38.869Z,19.83
2022-10-07T01:58:23.918Z,30.23
2022-10-07T02:01:00.356Z,21.17
2022-10-07T02:03:45.793Z,26.93
2022-10-07T02:06:22.111Z,24.40
2022-10-07T02:08:58.696Z,22.93
2022-10-07T02:11:29.101Z,24.23
2022-10-07T02:14:08.948Z,22.98
2022-10-07T02:16:41.702Z,25.10
2022-10-07T02:19:17.767Z,25.10
2022-10-07T02:21:50.751Z,19.50
2022-10-07T02:24:25.871Z,27.67
2022-10-07T02:26:55.740Z,21.57
2022-10-07T02:29:34.173Z,25.05
2022-10-07T02:32:05.609Z,22.63
2022-10-07T02:34:38.973Z,22.50
2022-10-07T02:37:14.847Z,23.70
2022-10-07T02:39:48.611Z,17.90
2022-10-07T02:42:25.380Z,19.13
2022-10-07T02:45:04.212Z,22.13
2022-10-07T02:47:37.449Z,20.40
2022-10-07T02:50:13.947Z,20.97
2022-10-07T02:52:44.931Z,19.03
2022-10-07T02:55:20.429Z,26.13
2022-10-07T02:57:51.724Z,18.20
2022-10-07T03:00:25.903Z,14.07
2022-10-07T03:02:56.217Z,19.73
2022-10-07T03:05:29.244Z,23.38
2022-10-07T03:08:00.326Z,28.37
2022-10-07T03:10:30.410Z,26.03
2022-10-07T03:13:00.232Z,18.75
2022-10-07T03:15:29.378Z,22.73
2022-10-07T03:17:59.460Z,21.00
2022-10-07T03:20:29.067Z,20.90
2022-10-07T03:22:56.921Z,27.40
2022-10-07T03:25:27.558Z,24.93
2022-10-07T03:27:57.244Z,24.10
2022-10-07T03:30:25.030Z,22.73
2022-10-07T03:32:56.502Z,28.83
2022-10-07T03:35:26.194Z,18.83
2022-10-07T03:37:54.214Z,26.17
2022-10-07T03:40:24.232Z,23.30
2022-10-07T03:42:53.875Z,21.35
2022-10-07T03:45:21.669Z,27.52
2022-10-07T03:47:51.632Z,20.40
2022-10-07T03:50:22.666Z,20.55
2022-10-07T03:52:50.479Z,20.73
2022-10-07T03:55:22.951Z,20.70
2022-10-07T03:57:59.158Z,28.43
2022-10-07T04:00:29.754Z,23.50
2022-10-07T04:02:57.600Z,26.17
2022-10-07T04:05:26.761Z,17.63
2022-10-07T04:07:58.705Z,13.93
2022-10-07T04:10:29.027Z,19.77
2022-10-07T04:12:56.847Z,22.95
2022-10-07T04:15:26.969Z,23.37
2022-10-07T04:17:58.758Z,26.42
2022-10-07T04:20:30.056Z,26.07
2022-10-07T04:23:00.005Z,26.37
2022-10-07T04:25:39.751Z,21.17
2022-10-07T04:28:14.713Z,23.42
2022-10-07T04:30:47.056Z,18.87
2022-10-07T04:33:14.957Z,20.07
2022-10-07T04:35:44.204Z,20.37
2022-10-07T04:38:17.697Z,17.47
2022-10-07T04:40:47.825Z,17.77
2022-10-07T04:43:22.059Z,21.35
2022-10-07T04:45:52.598Z,21.67
2022-10-07T04:50:54.842Z,18.03
2022-10-07T04:53:23.127Z,20.73
2022-10-07T04:55:55.530Z,19.20
2022-10-07T04:58:23.414Z,23.87
2022-10-07T05:00:53.154Z,21.43
2022-10-07T05:03:27.411Z,22.67
2022-10-07T05:06:00.201Z,18.90
2022-10-07T05:08:34.771Z,20.10
2022-10-07T05:11:05.428Z,22.93
2022-10-07T05:13:34.328Z,21.03
2022-10-07T05:16:06.033Z,22.10
2022-10-07T05:18:39.499Z,17.60
2022-10-07T05:21:11.175Z,21.47
2022-10-07T05:23:41.236Z,19.30
2022-10-07T05:26:16.046Z,19.48
2022-10-07T05:28:45.672Z,18.27
2022-10-07T05:31:16.168Z,21.48
2022-10-07T05:36:15.206Z,22.45
2022-10-07T05:38:45.454Z,19.33
2022-10-07T05:41:17.267Z,21.38
2022-10-07T05:43:47.307Z,24.87
2022-10-07T05:46:16.616Z,23.67
2022-10-07T05:48:49.846Z,20.37
2022-10-07T05:51:19.973Z,26.23
2022-10-07T05:53:50.223Z,21.45
2022-10-07T05:56:23.509Z,24.70
2022-10-07T05:58:52.541Z,22.40
2022-10-07T06:01:24.158Z,19.13
2022-10-07T06:03:53.654Z,21.50
2022-10-07T06:06:22.942Z,19.03
2022-10-07T06:08:54.455Z,30.50
2022-10-07T06:11:39.989Z,21.23
2022-10-07T06:14:09.806Z,22.47
2022-10-07T06:16:39.829Z,21.23
2022-10-07T06:19:24.243Z,17.40
2022-10-07T06:21:53.697Z,25.53
2022-10-07T06:24:21.531Z,24.47
2022-10-07T06:26:57.184Z,20.17
2022-10-07T06:29:24.934Z,27.33
2022-10-07T06:31:54.920Z,23.10
2022-10-07T06:34:24.558Z,24.50
2022-10-07T06:36:54.718Z,23.67
2022-10-07T06:39:24.880Z,25.58
2022-10-07T06:41:54.707Z,17.58
2022-10-07T06:44:22.520Z,18.13
2022-10-07T06:46:52.750Z,24.40
2022-10-07T06:49:22.373Z,17.52
2022-10-07T06:51:50.329Z,25.25
2022-10-07T06:54:19.540Z,23.57
2022-10-07T06:56:49.204Z,21.87
2022-10-07T06:59:16.913Z,18.88
2022-10-07T07:01:44.864Z,17.47
2022-10-07T07:04:12.696Z,21.90
2022-10-07T07:06:40.444Z,15.93
2022-10-07T07:09:08.300Z,20.70
2022-10-07T07:11:39.578Z,20.17
2022-10-07T07:14:11.944Z,20.70
2022-10-07T07:16:40.230Z,21.00
2022-10-07T07:19:12.129Z,21.90
2022-10-07T07:21:40.995Z,22.60
2022-10-07T07:24:09.144Z,20.40
2022-10-07T07:26:42.057Z,19.30
2022-10-07T07:29:10.639Z,23.70
2022-10-07T07:31:38.758Z,20.27
2022-10-07T07:34:13.226Z,18.73
2022-10-07T07:36:46.010Z,17.93
2022-10-07T07:39:15.902Z,18.77
2022-10-07T07:41:47.862Z,17.80
2022-10-07T07:44:17.923Z,25.03
2022-10-07T07:46:51.185Z,21.70
2022-10-07T07:49:21.616Z,16.87
2022-10-07T07:54:17.473Z,15.17
2022-10-07T07:56:48.805Z,21.87
2022-10-07T07:59:18.765Z,18.03
2022-10-07T08:01:46.573Z,20.88
2022-10-07T08:04:15.346Z,19.57
2022-10-07T08:06:45.368Z,19.17
2022-10-07T08:09:13.180Z,19.75
2022-10-07T08:11:47.055Z,15.53
2022-10-07T08:14:17.857Z,20.50
2022-10-07T08:16:46.101Z,20.83
2022-10-07T08:19:16.217Z,20.57
2022-10-07T08:21:46.194Z,14.63
2022-10-07T08:24:14.481Z,15.02
2022-10-07T08:26:44.145Z,18.37
2022-10-07T08:29:15.202Z,16.20
2022-10-07T08:31:44.362Z,17.37
2022-10-07T08:34:15.121Z,19.73
2022-10-07T08:36:47.456Z,15.20
2022-10-07T08:39:17.956Z,20.73
2022-10-07T08:41:55.567Z,19.58
2022-10-07T08:44:30.543Z,22.70
2022-10-07T08:47:07.501Z,12.50
2022-10-07T08:49:45.136Z,18.30
2022-10-07T08:52:33.798Z,22.73
2022-10-07T08:55:04.397Z,17.43
2022-10-07T08:57:49.256Z,17.97
2022-10-07T09:00:21.415Z,18.00
2022-10-07T09:03:07.863Z,19.80
2022-10-07T09:05:42.335Z,15.23
2022-10-07T09:08:18.782Z,18.30
2022-10-07T09:10:51.603Z,18.60
2022-10-07T09:13:26.165Z,21.20
2022-10-07T09:15:58.152Z,13.73
2022-10-07T09:18:35.988Z,16.77
2022-10-07T09:21:10.133Z,15.37
2022-10-07T09:23:40.178Z,15.43
2022-10-07T09:26:14.240Z,12.48
2022-10-07T09:28:44.421Z,15.40
2022-10-07T09:31:18.303Z,15.82
2022-10-07T09:33:50.571Z,15.82
2022-10-07T09:36:22.589Z,11.17
2022-10-07T09:38:53.795Z,16.58
2022-10-07T09:41:32.460Z,12.27
2022-10-07T09:44:05.298Z,13.00
2022-10-07T09:46:45.325Z,16.53
2022-10-07T09:49:31.547Z,11.23
2022-10-07T09:52:04.688Z,15.73
2022-10-07T09:54:33.928Z,21.02
2022-10-07T09:57:08.471Z,9.93
2022-10-07T09:59:37.446Z,11.93
2022-10-07T10:02:27.086Z,12.73
2022-10-07T10:04:58.088Z,12.07
2022-10-07T10:07:32.290Z,8.07
2022-10-07T10:10:06.685Z,10.95
2022-10-07T10:12:48.144Z,9.93
2022-10-07T10:15:25.069Z,13.13
2022-10-07T10:17:58.825Z,13.15
2022-10-07T10:20:36.083Z,15.95
2022-10-07T10:23:28.324Z,10.20
2022-10-07T10:26:27.192Z,11.63
2022-10-07T10:29:10.278Z,14.30
2022-10-07T10:31:55.834Z,13.52
2022-10-07T10:34:40.159Z,13.82
2022-10-07T10:37:18.497Z,13.77
2022-10-07T10:39:59.912Z,12.32
2022-10-07T10:42:40.255Z,13.20
2022-10-07T10:45:27.364Z,12.07
2022-10-07T10:48:20.450Z,9.55
2022-10-07T10:50:58.748Z,15.48
2022-10-07T10:53:38.713Z,8.98
2022-10-07T10:56:25.331Z,13.68
2022-10-07T10:59:09.817Z,11.93
2022-10-07T11:01:41.914Z,8.05
2022-10-07T11:04:24.540Z,16.92
2022-10-07T11:06:59.265Z,8.65
2022-10-07T11:09:38.641Z,15.70
2022-10-07T11:12:17.930Z,16.23
2022-10-07T11:14:57.575Z,15.40
2022-10-07T11:17:33.370Z,13.05
2022-10-07T11:20:13.873Z,13.25
2022-10-07T11:25:32.583Z,14.73
2022-10-07T11:28:14.952Z,12.32
2022-10-07T11:30:50.644Z,12.48
2022-10-07T11:33:24.629Z,11.43
2022-10-07T11:35:57.606Z,10.55
2022-10-07T11:38:32.156Z,10.35
2022-10-07T11:41:09.330Z,20.90
2022-10-07T11:43:47.527Z,9.65
2022-10-07T11:46:25.889Z,10.68
2022-10-07T11:49:02.705Z,13.82
2022-10-07T11:51:36.938Z,11.35
2022-10-07T11:54:08.145Z,12.25
2022-10-07T11:56:45.872Z,11.25
2022-10-07T11:59:35.436Z,12.07
2022-10-07T12:02:39.281Z,14.10
2022-10-07T12:05:10.912Z,8.73
2022-10-07T12:07:58.134Z,10.15
2022-10-07T12:10:30.638Z,9.80
2022-10-07T12:13:23.076Z,12.30
2022-10-07T12:15:51.751Z,9.98
2022-10-07T12:18:29.515Z,10.93
2022-10-07T12:21:10.572Z,10.00
2022-10-07T12:23:43.226Z,10.80
2022-10-07T12:26:49.248Z,8.80
2022-10-07T12:29:40.754Z,8.02
2022-10-07T12:32:42.903Z,8.05
2022-10-07T12:35:42.130Z,10.35
2022-10-07T12:38:18.732Z,8.43
2022-10-07T12:40:52.787Z,11.70
2022-10-07T12:43:33.445Z,8.07
2022-10-07T12:46:06.914Z,7.05
2022-10-07T12:48:43.035Z,11.32
2022-10-07T12:51:18.418Z,10.18
2022-10-07T12:53:50.366Z,9.30
2022-10-07T12:56:22.992Z,9.30
2022-10-07T12:59:35.590Z,8.68
2022-10-07T13:02:40.126Z,9.32
2022-10-07T13:05:57.566Z,8.45
2022-10-07T13:09:14.575Z,11.20
2022-10-07T13:12:08.918Z,7.50
2022-10-07T13:14:48.864Z,10.60
2022-10-07T13:17:30.162Z,12.07
2022-10-07T13:20:07.691Z,6.13
2022-10-07T13:22:37.896Z,10.43
2022-10-07T13:25:08.844Z,6.45
2022-10-07T13:27:40.549Z,10.35
2022-10-07T13:30:31.517Z,12.10
2022-10-07T13:33:18.948Z,7.45
2022-10-07T13:35:49.812Z,8.15
2022-10-07T13:38:27.456Z,7.57
2022-10-07T13:41:02.226Z,8.65
2022-10-07T13:43:34.117Z,8.25
2022-10-07T13:46:07.184Z,7.10
2022-10-07T13:48:45.224Z,9.90
2022-10-07T13:51:22.207Z,6.88
2022-10-07T13:53:57.045Z,7.97
2022-10-07T13:56:28.043Z,7.93
2022-10-07T13:58:57.317Z,6.65
2022-10-07T14:01:29.787Z,8.27
2022-10-07T14:04:17.939Z,7.18
2022-10-07T14:07:00.650Z,7.05
2022-10-07T14:09:38.689Z,8.07
2022-10-07T14:12:12.019Z,8.25
2022-10-07T14:14:41.997Z,10.65
2022-10-07T14:17:25.145Z,8.65
2022-10-07T14:19:59.152Z,6.88
2022-10-07T14:22:33.710Z,6.60
2022-10-07T14:25:04.031Z,6.38
2022-10-07T14:27:43.733Z,7.63
2022-10-07T14:30:56.476Z,8.77
2022-10-07T14:33:55.348Z,6.95
2022-10-07T14:36:24.647Z,5.47
2022-10-07T14:38:56.108Z,6.32
2022-10-07T14:41:26.770Z,6.22
2022-10-07T14:43:55.727Z,7.65
2022-10-07T14:46:29.942Z,7.75
2022-10-07T14:48:57.791Z,5.22
2022-10-07T14:51:32.396Z,7.28
2022-10-07T14:54:05.139Z,8.88
2022-10-07T14:56:38.634Z,7.82
2022-10-07T14:59:11.525Z,5.45
2022-10-07T15:01:39.257Z,6.45
2022-10-07T15:04:08.989Z,7.65
2022-10-07T15:06:40.477Z,6.43
2022-10-07T15:09:08.559Z,6.35
2022-10-07T15:11:38.219Z,7.70
2022-10-07T15:14:12.242Z,7.45
2022-10-07T15:16:41.742Z,8.70
2022-10-07T15:19:09.585Z,6.93
2022-10-07T15:21:40.936Z,7.80
2022-10-07T15:24:12.519Z,7.47
2022-10-07T15:26:42.633Z,8.98
2022-10-07T15:29:13.366Z,6.97
2022-10-07T15:31:43.054Z,8.85
2022-10-07T15:34:11.042Z,8.52
2022-10-07T15:36:40.264Z,10.57
2022-10-07T15:39:10.132Z,10.40
2022-10-07T15:41:41.695Z,7.40
2022-10-07T15:44:16.928Z,6.72
2022-10-07T15:46:45.916Z,7.65
2022-10-07T15:49:14.298Z,6.80
2022-10-07T15:51:48.525Z,8.55
2022-10-07T15:54:16.275Z,6.18
2022-10-07T15:56:45.213Z,6.80
2022-10-07T15:59:19.914Z,8.90
2022-10-07T16:01:51.812Z,5.90
2022-10-07T16:04:24.000Z,9.60
2022-10-07T16:06:53.173Z,7.43
2022-10-07T16:09:22.389Z,8.75
2022-10-07T16:11:54.713Z,7.65
2022-10-07T16:14:24.738Z,10.45
2022-10-07T16:16:52.550Z,5.88
2022-10-07T16:19:22.691Z,7.50
2022-10-07T16:21:54.157Z,7.55
2022-10-07T16:24:23.346Z,7.47
2022-10-07T16:26:59.185Z,7.37
2022-10-07T16:29:46.967Z,8.10
2022-10-07T16:32:14.831Z,9.90
2022-10-07T16:34:44.422Z,4.73
2022-10-07T16:37:14.328Z,6.00
2022-10-07T16:39:42.223Z,5.60
2022-10-07T16:42:10.297Z,6.57
2022-10-07T16:44:38.807Z,8.53
2022-10-07T16:47:06.695Z,6.17
2022-10-07T16:49:36.432Z,5.43
2022-10-07T16:52:06.499Z,5.80
2022-10-07T16:54:36.254Z,6.50
2022-10-07T16:57:04.061Z,7.07
2022-10-07T16:59:34.440Z,10.33
2022-10-07T17:02:05.087Z,6.68
2022-10-07T17:04:33.140Z,8.10
2022-10-07T17:07:00.970Z,6.47
2022-10-07T17:09:30.752Z,7.37
2022-10-07T17:11:59.875Z,9.75
2022-10-07T17:14:34.971Z,6.03
2022-10-07T17:17:04.035Z,11.90
2022-10-07T17:19:34.825Z,8.77
2022-10-07T17:22:05.902Z,8.47
2022-10-07T17:24:33.805Z,8.33
2022-10-07T17:27:05.368Z,7.13
2022-10-07T17:29:36.160Z,5.33
2022-10-07T17:32:07.120Z,7.27
2022-10-07T17:34:34.859Z,6.13
2022-10-07T17:37:02.665Z,10.20
2022-10-07T17:39:32.765Z,6.57
2022-10-07T17:42:01.977Z,8.05
2022-10-07T17:44:33.826Z,8.13
2022-10-07T17:47:03.840Z,9.20
2022-10-07T17:49:31.833Z,10.43
2022-10-07T17:51:59.770Z,8.20
2022-10-07T17:54:29.768Z,10.77
2022-10-07T17:56:58.150Z,7.10
2022-10-07T17:59:29.354Z,5.50
2022-10-07T18:01:57.267Z,8.17
2022-10-07T18:04:25.431Z,9.27
2022-10-07T18:06:55.315Z,12.07
2022-10-07T18:09:25.415Z,10.15
2022-10-07T18:12:24.195Z,8.85
2022-10-07T18:15:17.149Z,10.27
2022-10-07T18:17:45.558Z,7.73
2022-10-07T18:20:15.321Z,9.43
2022-10-07T18:22:50.488Z,6.88
2022-10-07T18:25:18.763Z,7.37
2022-10-07T18:27:47.175Z,8.07
2022-10-07T18:30:17.263Z,10.93
2022-10-07T18:32:47.239Z,7.45
2022-10-07T18:35:17.235Z,8.55
2022-10-07T18:37:45.705Z,9.38
2022-10-07T18:40:15.888Z,6.40
2022-10-07T18:42:46.504Z,8.07
2022-10-07T18:45:15.161Z,9.10
2022-10-07T18:47:47.604Z,8.10
2022-10-07T18:50:22.197Z,7.07
2022-10-07T18:52:52.672Z,12.43
2022-10-07T18:57:53.399Z,8.57
2022-10-07T19:00:24.635Z,6.70
2022-10-07T19:02:57.826Z,7.53
2022-10-07T19:05:33.803Z,11.30
2022-10-07T19:08:02.168Z,7.80
2022-10-07T19:10:32.563Z,6.50
2022-10-07T19:13:21.349Z,7.00
2022-10-07T19:15:52.748Z,6.60
2022-10-07T19:18:24.271Z,7.77
2022-10-07T19:21:03.078Z,8.00
2022-10-07T19:23:34.396Z,11.13
2022-10-07T19:26:07.926Z,12.67
2022-10-07T19:28:40.012Z,7.30
2022-10-07T19:31:20.248Z,8.53
2022-10-07T19:33:52.583Z,11.05
2022-10-07T19:36:24.431Z,7.37
2022-10-07T19:38:53.475Z,10.77
2022-10-07T19:41:28.472Z,7.53
2022-10-07T19:43:57.468Z,5.90
2022-10-07T19:46:30.411Z,8.83
2022-10-07T19:49:01.293Z,6.97
2022-10-07T19:51:32.170Z,7.13
2022-10-07T19:54:01.560Z,6.93
2022-10-07T19:56:31.841Z,8.40
2022-10-07T19:59:04.504Z,10.32
2022-10-07T20:01:36.158Z,8.13
2022-10-07T20:04:07.267Z,10.53
2022-10-07T20:06:37.654Z,8.40
2022-10-07T20:09:06.893Z,5.47
2022-10-07T20:11:36.952Z,10.33
2022-10-07T20:14:07.361Z,9.15
2022-10-07T20:19:09.802Z,8.23
2022-10-07T20:21:39.401Z,10.83
2022-10-07T20:24:08.581Z,8.65
2022-10-07T20:26:38.619Z,6.53
2022-10-07T20:29:10.233Z,7.07
2022-10-07T20:31:40.353Z,4.97
2022-10-07T20:34:12.731Z,5.57
2022-10-07T20:36:41.447Z,7.30
2022-10-07T20:39:31.715Z,6.73
2022-10-07T20:42:19.919Z,9.43
2022-10-07T20:44:48.849Z,6.90
2022-10-07T20:47:17.163Z,5.97
2022-10-07T20:49:50.282Z,8.20
2022-10-07T20:52:23.117Z,4.40
2022-10-07T20:54:51.302Z,8.80
2022-10-07T20:57:21.531Z,8.07
2022-10-07T20:59:50.120Z,10.38
2022-10-07T21:02:20.075Z,6.70
2022-10-07T21:04:49.512Z,6.35
2022-10-07T21:07:20.627Z,7.90
2022-10-07T21:09:48.937Z,7.43
2022-10-07T21:12:20.774Z,6.00
2022-10-07T21:14:49.763Z,7.67
2022-10-07T21:17:17.769Z,7.30
2022-10-07T21:19:47.924Z,6.23
2022-10-07T21:22:19.023Z,8.50
2022-10-07T21:24:47.097Z,6.80
2022-10-07T21:27:14.896Z,8.07
2022-10-07T21:29:48.539Z,7.03
2022-10-07T21:32:20.821Z,8.57
2022-10-07T21:34:48.554Z,9.67
2022-10-07T21:37:17.700Z,10.63
2022-10-07T21:39:49.854Z,7.07
2022-10-07T21:42:17.672Z,9.03
2022-10-07T21:44:47.066Z,11.07
2022-10-07T21:47:20.817Z,11.57
2022-10-07T21:49:48.619Z,11.70
2022-10-07T21:52:19.836Z,9.27
2022-10-07T21:54:47.787Z,9.47
2022-10-07T21:57:15.494Z,11.77
2022-10-07T21:59:45.412Z,11.47
2022-10-07T22:02:14.000Z,9.90
2022-10-07T22:04:42.469Z,10.10
2022-10-07T22:07:32.554Z,9.00
2022-10-07T22:10:01.702Z,9.45
2022-10-07T22:12:29.487Z,13.33
2022-10-07T22:14:59.124Z,9.90
2022-10-07T22:17:27.065Z,8.77
2022-10-07T22:19:56.917Z,15.13
2022-10-07T22:22:26.925Z,10.85
2022-10-07T22:24:54.690Z,15.73
2022-10-07T22:27:26.191Z,11.13
2022-10-07T22:29:56.201Z,9.43
2022-10-07T22:32:23.997Z,9.98
2022-10-07T22:35:11.362Z,8.50
2022-10-07T22:37:39.064Z,8.17
2022-10-07T22:40:07.883Z,12.47
2022-10-07T22:42:39.465Z,10.97
2022-10-07T22:45:09.854Z,7.77
2022-10-07T22:47:38.050Z,12.20
2022-10-07T22:50:10.044Z,9.83
2022-10-07T22:52:39.914Z,8.63
2022-10-07T22:55:08.982Z,10.05
2022-10-07T22:57:40.026Z,10.33
2022-10-07T23:00:10.203Z,9.23
2022-10-07T23:02:38.062Z,9.40
2022-10-07T23:05:08.544Z,8.53
2022-10-07T23:07:36.730Z,7.75
2022-10-07T23:10:05.137Z,8.63
2022-10-07T23:12:34.707Z,8.27
2022-10-07T23:15:07.038Z,9.20
2022-10-07T23:17:34.962Z,7.13
2022-10-07T23:20:05.112Z,11.60
2022-10-07T23:22:33.686Z,14.60
2022-10-07T23:25:04.392Z,10.53
2022-10-07T23:27:34.187Z,9.53
2022-10-07T23:30:06.207Z,7.32
2022-10-07T23:32:34.065Z,11.23
2022-10-07T23:35:06.087Z,9.60
2022-10-07T23:37:33.851Z,8.80
2022-10-07T23:40:01.654Z,8.27
2022-10-07T23:42:33.440Z,7.87
2022-10-07T23:45:01.584Z,9.57
2022-10-07T23:47:30.677Z,14.90
2022-10-07T23:50:03.528Z,9.17
2022-10-07T23:52:31.496Z,13.60
2022-10-07T23:54:59.320Z,22.53
2022-10-07T23:57:31.042Z,7.47
2022-10-07T23:59:58.827Z,12.40
